createdAt,value
2023-02-28T00:03:43.900Z,97.32
2023-02-28T00:08:45.672Z,96.85
2023-02-28T00:13:48.683Z,97.08
2023-02-28T00:18:51.415Z,96.84
2023-02-28T00:23:53.068Z,96.25
2023-02-28T00:28:54.741Z,96.73
2023-02-28T00:33:57.959Z,97.57
2023-02-28T00:38:59.567Z,97.28
2023-02-28T00:44:03.309Z,97.49
2023-02-28T00:49:07.471Z,98.08
2023-02-28T00:54:10.979Z,98.27
2023-02-28T00:59:16.903Z,96.73
2023-02-28T01:04:20.291Z,97.40
2023-02-28T01:09:21.934Z,98.49
2023-02-28T01:14:23.551Z,97.89
2023-02-28T01:19:25.889Z,98.18
2023-02-28T01:24:27.549Z,98.20
2023-02-28T01:29:29.168Z,98.24
2023-02-28T01:34:30.821Z,98.27
2023-02-28T01:39:32.465Z,98.61
2023-02-28T01:45:01.107Z,98.70
2023-02-28T01:50:08.585Z,98.20
2023-02-28T01:55:12.204Z,99.35
2023-02-28T02:00:20.680Z,100.00
2023-02-28T02:05:28.177Z,100.00
2023-02-28T02:10:37.374Z,100.00
2023-02-28T02:16:13.815Z,100.00
2023-02-28T02:21:36.668Z,100.00
2023-02-28T02:27:09.746Z,100.00
2023-02-28T02:32:39.133Z,100.00
2023-02-28T02:37:58.262Z,100.00
2023-02-28T02:43:07.985Z,99.65
2023-02-28T02:48:14.165Z,98.92
2023-02-28T02:53:20.056Z,98.99
2023-02-28T02:58:28.223Z,99.23
2023-02-28T03:09:58.522Z,100.00
2023-02-28T03:15:25.712Z,100.00
2023-02-28T03:20:55.787Z,100.00
2023-02-28T03:26:05.245Z,99.79
2023-02-28T03:31:18.912Z,100.00
2023-02-28T03:36:24.058Z,100.00
2023-02-28T03:41:37.161Z,100.00
2023-02-28T03:46:44.867Z,100.00
2023-02-28T03:51:48.316Z,100.00
2023-02-28T03:56:56.508Z,100.00
2023-02-28T04:01:59.691Z,100.00
2023-02-28T04:07:09.353Z,100.00
2023-02-28T04:12:11.069Z,100.00
2023-02-28T04:17:12.671Z,100.00
2023-02-28T04:22:14.729Z,100.00
2023-02-28T04:27:16.857Z,100.00
2023-02-28T04:32:18.746Z,100.00
2023-02-28T04:37:20.630Z,100.00
2023-02-28T04:42:22.324Z,100.00
2023-02-28T04:47:23.921Z,100.00
2023-02-28T04:52:25.547Z,100.00
2023-02-28T04:57:27.153Z,100.00
2023-02-28T05:02:28.880Z,100.00
2023-02-28T05:07:30.592Z,100.00
2023-02-28T05:12:32.189Z,100.00
2023-02-28T05:17:33.800Z,100.00
2023-02-28T05:22:35.464Z,100.00
2023-02-28T05:27:37.111Z,100.00
2023-02-28T05:32:39.953Z,100.00
2023-02-28T05:37:41.654Z,100.00
2023-02-28T05:42:43.325Z,100.00
2023-02-28T05:47:44.980Z,100.00
2023-02-28T05:52:51.295Z,100.00
2023-02-28T05:57:52.922Z,100.00
2023-02-28T06:02:57.317Z,100.00
2023-02-28T06:07:58.936Z,100.00
2023-02-28T06:13:03.485Z,100.00
2023-02-28T06:18:05.389Z,100.00
2023-02-28T06:23:06.993Z,100.00
2023-02-28T06:28:08.646Z,100.00
2023-02-28T06:33:10.282Z,100.00
2023-02-28T06:38:11.931Z,100.00
2023-02-28T06:43:14.500Z,100.00
2023-02-28T06:48:16.131Z,92.73
2023-02-28T06:53:17.785Z,90.08
2023-02-28T06:58:20.028Z,87.16
2023-02-28T07:03:21.763Z,84.65
2023-02-28T07:08:24.711Z,77.18
2023-02-28T07:13:26.405Z,77.09
2023-02-28T07:18:28.852Z,77.71
2023-02-28T07:23:30.801Z,80.03
2023-02-28T07:28:32.436Z,83.00
2023-02-28T07:33:35.103Z,84.00
2023-02-28T07:38:38.444Z,80.29
2023-02-28T07:43:40.124Z,67.14
2023-02-28T07:48:42.249Z,65.65
2023-02-28T07:53:43.937Z,68.72
2023-02-28T07:58:45.581Z,71.99
2023-02-28T08:03:47.251Z,69.48
2023-02-28T08:08:49.841Z,67.52
2023-02-28T08:13:51.878Z,69.48
2023-02-28T08:18:54.099Z,68.99
2023-02-28T08:23:57.808Z,58.69
2023-02-28T08:29:01.434Z,53.87
2023-02-28T08:34:21.410Z,54.92
2023-02-28T08:39:23.042Z,50.80
2023-02-28T08:44:24.655Z,51.73
2023-02-28T08:49:26.307Z,54.55
2023-02-28T08:54:31.699Z,59.14
2023-02-28T08:59:33.684Z,60.50
2023-02-28T09:04:35.328Z,59.44
2023-02-28T09:09:36.935Z,58.45
2023-02-28T09:14:38.514Z,58.62
2023-02-28T09:19:40.423Z,57.57
2023-02-28T09:24:42.309Z,56.64
2023-02-28T09:29:44.025Z,53.67
2023-02-28T09:34:45.645Z,53.02
2023-02-28T09:39:47.263Z,50.65
2023-02-28T09:44:51.378Z,47.56
2023-02-28T09:49:53.653Z,50.34
2023-02-28T09:54:55.938Z,48.08
2023-02-28T10:00:45.007Z,47.85
2023-02-28T10:05:55.549Z,47.78
2023-02-28T10:11:05.424Z,47.18
2023-02-28T10:16:21.158Z,49.77
2023-02-28T10:21:29.375Z,49.10
2023-02-28T10:26:33.900Z,52.54
2023-02-28T10:31:36.125Z,58.28
2023-02-28T10:36:37.812Z,56.93
2023-02-28T10:41:43.710Z,59.12
2023-02-28T10:46:46.484Z,57.62
2023-02-28T10:51:52.630Z,56.59
2023-02-28T10:57:18.776Z,54.03
2023-02-28T11:07:53.001Z,48.91
2023-02-28T11:13:00.576Z,47.20
2023-02-28T11:18:24.484Z,46.70
2023-02-28T11:23:29.954Z,47.43
2023-02-28T11:28:38.032Z,49.17
2023-02-28T11:33:55.423Z,51.17
2023-02-28T11:39:05.572Z,55.41
2023-02-28T11:44:37.910Z,52.76
2023-02-28T11:50:07.040Z,48.31
2023-02-28T11:55:32.847Z,45.78
2023-02-28T12:00:59.754Z,45.06
2023-02-28T12:06:18.734Z,44.54
2023-02-28T12:11:41.879Z,45.28
2023-02-28T12:17:08.289Z,45.29
2023-02-28T12:22:20.235Z,41.42
2023-02-28T12:27:27.805Z,43.01
2023-02-28T12:32:47.980Z,46.46
2023-02-28T12:38:03.076Z,45.11
2023-02-28T12:43:08.612Z,44.29
2023-02-28T12:48:15.744Z,45.24
2023-02-28T12:53:47.770Z,46.14
2023-02-28T12:58:55.518Z,48.96
2023-02-28T13:04:48.610Z,44.44
2023-02-28T13:10:01.789Z,46.41
2023-02-28T13:15:16.124Z,46.13
2023-02-28T13:20:24.481Z,46.84
2023-02-28T13:25:26.041Z,48.45
2023-02-28T13:31:00.650Z,51.69
2023-02-28T13:36:15.354Z,49.86
2023-02-28T13:41:32.473Z,47.81
2023-02-28T13:46:58.146Z,51.11
2023-02-28T13:52:09.698Z,51.67
2023-02-28T13:57:50.294Z,53.92
2023-02-28T14:03:04.437Z,51.66
2023-02-28T14:08:24.015Z,50.94
2023-02-28T14:13:28.683Z,54.00
2023-02-28T14:18:36.379Z,52.09
2023-02-28T14:23:56.773Z,53.46
2023-02-28T14:29:04.855Z,52.21
2023-02-28T14:34:32.920Z,52.67
2023-02-28T14:39:35.530Z,55.04
2023-02-28T14:44:37.323Z,53.66
2023-02-28T14:49:46.631Z,53.90
2023-02-28T14:54:54.884Z,54.80
2023-02-28T15:00:13.225Z,55.97
2023-02-28T15:05:17.641Z,58.28
2023-02-28T15:10:24.195Z,59.20
2023-02-28T15:16:02.051Z,60.04
2023-02-28T15:21:08.775Z,60.57
2023-02-28T15:26:18.161Z,60.40
2023-02-28T15:31:24.600Z,60.92
2023-02-28T15:36:31.027Z,60.87
2023-02-28T15:41:41.674Z,60.86
2023-02-28T15:46:54.516Z,62.36
2023-02-28T15:52:00.362Z,62.06
2023-02-28T15:57:09.527Z,61.42
2023-02-28T16:02:11.219Z,62.01
2023-02-28T16:07:14.062Z,62.38
2023-02-28T16:12:15.710Z,63.10
2023-02-28T16:17:29.358Z,65.33
2023-02-28T16:22:31.073Z,65.97
2023-02-28T16:27:36.546Z,66.50
2023-02-28T16:32:38.214Z,68.19
2023-02-28T16:37:39.876Z,73.18
2023-02-28T16:42:42.034Z,72.68
2023-02-28T16:47:43.702Z,73.58
2023-02-28T16:52:45.511Z,73.66
2023-02-28T16:57:56.194Z,77.75
2023-02-28T17:02:58.495Z,77.63
2023-02-28T17:08:00.203Z,78.71
2023-02-28T17:13:14.153Z,77.49
2023-02-28T17:18:19.944Z,77.76
2023-02-28T17:23:21.568Z,76.62
2023-02-28T17:28:23.211Z,79.88
2023-02-28T17:33:24.927Z,81.30
2023-02-28T17:38:26.547Z,80.63
2023-02-28T17:43:28.353Z,79.94
2023-02-28T17:48:31.389Z,80.82
2023-02-28T17:53:33.607Z,82.37
2023-02-28T17:58:35.259Z,82.46
2023-02-28T18:03:36.918Z,83.01
2023-02-28T18:08:38.549Z,83.61
2023-02-28T18:13:40.163Z,84.71
2023-02-28T18:18:42.344Z,86.03
2023-02-28T18:23:52.087Z,85.54
2023-02-28T18:28:53.671Z,86.59
2023-02-28T18:33:55.283Z,86.67
2023-02-28T18:38:56.896Z,87.24
2023-02-28T18:44:07.731Z,87.14
2023-02-28T18:49:15.630Z,86.60
2023-02-28T18:54:17.702Z,87.34
2023-02-28T18:59:19.311Z,87.28
2023-02-28T19:04:21.033Z,88.00
2023-02-28T19:09:22.861Z,88.38
2023-02-28T19:14:24.511Z,88.16
2023-02-28T19:19:26.209Z,87.99
2023-02-28T19:24:27.811Z,87.86
2023-02-28T19:29:29.411Z,89.05
2023-02-28T19:34:31.047Z,89.16
2023-02-28T19:39:41.125Z,89.55
2023-02-28T19:44:43.241Z,90.64
2023-02-28T19:49:44.906Z,90.98
2023-02-28T19:54:46.509Z,90.72
2023-02-28T19:59:48.308Z,91.00
2023-02-28T20:04:51.125Z,90.46
2023-02-28T20:09:52.989Z,91.39
2023-02-28T20:14:58.202Z,90.77
2023-02-28T20:19:59.903Z,90.75
2023-02-28T20:25:01.546Z,91.40
2023-02-28T20:30:04.299Z,91.97
2023-02-28T20:35:08.671Z,90.91
2023-02-28T20:40:10.959Z,90.04
2023-02-28T20:45:12.600Z,90.71
2023-02-28T20:50:14.206Z,90.90
2023-02-28T20:55:15.917Z,91.63
2023-02-28T21:00:20.605Z,92.25
2023-02-28T21:05:22.223Z,92.74
2023-02-28T21:10:23.832Z,91.78
2023-02-28T21:15:25.927Z,92.33
2023-02-28T21:20:28.127Z,91.53
2023-02-28T21:25:29.743Z,92.75
2023-02-28T21:30:31.433Z,93.82
2023-02-28T21:35:33.084Z,94.29
2023-02-28T21:40:34.771Z,94.22
2023-02-28T21:45:36.456Z,93.75
2023-02-28T21:50:38.072Z,93.89
2023-02-28T21:55:39.710Z,94.15
2023-02-28T22:00:46.030Z,94.82
2023-02-28T22:05:47.619Z,95.58
2023-02-28T22:10:49.230Z,96.09
2023-02-28T22:15:50.850Z,97.08
2023-02-28T22:20:55.905Z,95.55
2023-02-28T22:26:00.823Z,95.31
2023-02-28T22:31:13.341Z,96.03
2023-02-28T22:36:16.709Z,96.80
2023-02-28T22:41:20.514Z,97.29
2023-02-28T22:46:24.151Z,96.20
2023-02-28T22:51:27.102Z,95.62
2023-02-28T22:56:30.590Z,95.32
2023-02-28T23:01:34.500Z,95.53
2023-02-28T23:06:42.047Z,95.65
2023-02-28T23:11:47.427Z,96.11
2023-02-28T23:16:51.704Z,96.13
2023-02-28T23:21:53.903Z,95.25
2023-02-28T23:26:58.686Z,95.14
2023-02-28T23:32:00.449Z,94.54
2023-02-28T23:37:02.708Z,94.71
2023-02-28T23:42:04.337Z,94.55
2023-02-28T23:47:06.476Z,95.45
2023-02-28T23:52:08.257Z,96.40
2023-02-28T23:57:09.919Z,96.11
